Terminal Aerodrome Forecast
Issued by NWS Flagstaff, AZ

Home | Current Version | Previous Version | Text Only | Print | Product List | Glossary On
Versions: 1 2 3 4 5 6 7 8 9 10 11 12 13 14 15 16 17 18 19
000
FTUS45 KFGZ 241122
TAFFLG
TAF
KFLG 241122Z 2412/2512 VRB05KT P6SM -RA SCT070 OVC090
     FM241600 16005KT P6SM VCSH SCT020 OVC070
     FM241800 21006KT 4SM -RA BR SCT005 BKN020 OVC070=

USA.gov is the U.S. government's official web portal to all federal, state and local government web resources and services.